createdAt,value
2023-04-08T20:54:48.620Z,3.66
2023-04-08T20:57:22.177Z,3.56
2023-04-08T20:59:54.904Z,3.52
2023-04-08T21:02:31.650Z,3.48
2023-04-08T21:05:00.146Z,3.42
2023-04-08T21:07:35.737Z,3.35
2023-04-08T21:10:06.966Z,3.32
2023-04-08T21:12:34.734Z,3.27
2023-04-08T21:15:02.985Z,3.19
2023-04-08T21:17:36.076Z,3.14
2023-04-08T21:20:13.781Z,3.10
2023-04-08T21:22:45.924Z,3.04
2023-04-08T21:25:21.368Z,2.97
2023-04-08T21:27:50.034Z,2.90
2023-04-08T21:30:25.434Z,2.88
2023-04-08T21:33:00.990Z,2.85
2023-04-08T21:35:28.809Z,2.82
2023-04-08T21:37:57.062Z,2.77
2023-04-08T21:40:24.876Z,2.73
2023-04-08T21:42:53.041Z,2.67
2023-04-08T21:45:20.917Z,2.65
2023-04-08T21:47:50.750Z,2.60
2023-04-08T21:50:18.744Z,2.53
2023-04-08T21:52:47.256Z,2.49
2023-04-08T21:55:15.217Z,2.48
2023-04-08T21:57:42.992Z,2.44
2023-04-08T22:00:13.607Z,2.41
2023-04-08T22:02:41.611Z,2.37
2023-04-08T22:05:10.508Z,2.35
2023-04-08T22:07:38.238Z,2.33
2023-04-08T22:10:06.763Z,2.30
2023-04-08T22:12:34.751Z,2.26
2023-04-08T22:15:03.722Z,2.19
2023-04-08T22:17:31.613Z,2.15
2023-04-08T22:19:59.394Z,2.13
2023-04-08T22:22:27.249Z,2.06
2023-04-08T22:24:55.775Z,2.00
2023-04-08T22:27:23.610Z,1.92
2023-04-08T22:29:51.742Z,1.93
2023-04-08T22:32:19.473Z,1.96
2023-04-08T22:34:47.307Z,1.99
2023-04-08T22:37:15.059Z,1.99
2023-04-08T22:39:42.798Z,2.00
2023-04-08T22:42:11.034Z,1.99
2023-04-08T22:44:39.243Z,2.00
2023-04-08T22:47:07.195Z,2.01
2023-04-08T22:49:34.972Z,1.98
2023-04-08T22:52:02.778Z,1.97
2023-04-08T22:54:31.117Z,1.94
2023-04-08T22:56:58.878Z,1.90
2023-04-08T22:59:27.116Z,1.89
2023-04-08T23:01:55.860Z,1.92
2023-04-08T23:04:23.876Z,1.91
2023-04-08T23:06:51.907Z,1.92
2023-04-08T23:09:20.715Z,1.96
2023-04-08T23:11:48.519Z,1.97
2023-04-08T23:14:17.015Z,1.95
2023-04-08T23:16:45.703Z,1.91
2023-04-08T23:19:13.539Z,1.89
2023-04-08T23:21:41.580Z,1.88
2023-04-08T23:24:10.405Z,1.86
2023-04-08T23:26:38.555Z,1.86
2023-04-08T23:29:06.904Z,1.88
2023-04-08T23:31:35.429Z,1.91
2023-04-08T23:34:03.401Z,1.90
2023-04-08T23:36:31.482Z,1.90
2023-04-08T23:38:59.248Z,1.91
2023-04-08T23:41:27.655Z,1.85
2023-04-08T23:43:55.981Z,1.80
2023-04-08T23:46:26.693Z,1.75
2023-04-08T23:48:54.561Z,1.68
2023-04-08T23:51:22.572Z,1.67
2023-04-08T23:53:52.225Z,1.68
2023-04-08T23:56:20.828Z,1.65
2023-04-08T23:58:48.582Z,1.65
